createdAt,value
2023-02-13T00:01:11.911Z,-18.98
2023-02-13T00:04:16.082Z,-19.09
2023-02-13T00:07:38.456Z,-20.08
2023-02-13T00:10:45.402Z,-17.60
2023-02-13T00:13:49.781Z,-17.82
2023-02-13T00:16:53.565Z,-17.79
2023-02-13T00:19:57.985Z,-17.59
2023-02-13T00:23:04.824Z,-17.52
2023-02-13T00:26:12.875Z,-17.73
2023-02-13T00:29:21.138Z,-18.34
2023-02-13T00:32:25.728Z,-18.17
2023-02-13T00:35:34.121Z,-18.35
2023-02-13T00:38:40.037Z,-17.64
2023-02-13T00:41:43.967Z,-17.90
2023-02-13T00:44:48.179Z,-17.08
2023-02-13T00:47:52.630Z,-14.55
2023-02-13T00:50:57.978Z,-13.83
2023-02-13T00:54:02.717Z,-13.05
2023-02-13T00:57:07.041Z,-11.77
2023-02-13T01:00:12.885Z,-12.17
2023-02-13T01:03:22.270Z,-11.80
2023-02-13T01:06:27.162Z,-11.05
2023-02-13T01:09:31.870Z,-8.75
2023-02-13T01:12:36.705Z,-8.18
2023-02-13T01:15:42.708Z,-7.50
2023-02-13T01:18:47.090Z,-7.66
2023-02-13T01:21:51.468Z,-7.15
2023-02-13T01:24:56.143Z,-7.01
2023-02-13T01:28:00.691Z,-6.98
2023-02-13T01:31:04.897Z,-6.83
2023-02-13T01:34:09.276Z,-6.98
2023-02-13T01:37:14.242Z,-7.75
2023-02-13T01:40:18.897Z,-5.99
2023-02-13T01:43:26.020Z,-5.78
2023-02-13T01:46:44.391Z,-5.60
2023-02-13T01:49:49.996Z,-5.64
2023-02-13T01:53:08.348Z,-5.38
2023-02-13T01:56:36.627Z,-5.86
2023-02-13T01:59:56.393Z,-5.14
2023-02-13T02:03:07.230Z,-5.67
2023-02-13T02:06:18.234Z,-5.15
2023-02-13T02:09:28.521Z,-5.13
2023-02-13T02:16:19.284Z,-4.74
2023-02-13T02:19:36.576Z,-4.39
2023-02-13T02:23:14.923Z,-4.21
2023-02-13T02:26:46.547Z,-5.46
2023-02-13T02:30:15.654Z,-5.70
2023-02-13T02:33:46.866Z,-5.30
2023-02-13T02:37:06.455Z,-5.98
2023-02-13T02:40:40.987Z,-5.19
2023-02-13T02:44:23.844Z,-5.56
2023-02-13T02:48:16.077Z,-5.70
2023-02-13T02:51:34.740Z,-7.50
2023-02-13T02:55:09.197Z,-7.37
2023-02-13T02:58:46.053Z,-6.84
2023-02-13T03:02:13.144Z,-7.51
2023-02-13T03:05:47.265Z,-7.58
2023-02-13T03:09:20.169Z,-7.42
2023-02-13T03:12:46.881Z,-7.51
2023-02-13T03:16:14.800Z,-7.81
2023-02-13T03:20:17.375Z,-8.32
2023-02-13T03:23:40.950Z,-7.78
2023-02-13T03:27:49.075Z,-7.94
2023-02-13T03:31:03.568Z,-7.57
2023-02-13T03:34:21.404Z,-8.29
2023-02-13T03:37:50.194Z,-8.03
2023-02-13T03:41:20.146Z,-7.99
2023-02-13T03:45:12.876Z,-7.36
2023-02-13T03:48:40.894Z,-7.26
2023-02-13T03:52:11.802Z,-8.36
2023-02-13T03:55:42.200Z,-8.04
2023-02-13T03:59:10.714Z,-7.42
2023-02-13T04:02:20.996Z,-7.88
2023-02-13T04:05:29.710Z,-8.72
2023-02-13T04:08:34.109Z,-8.10
2023-02-13T04:11:52.753Z,-8.70
2023-02-13T04:15:04.702Z,-8.45
2023-02-13T04:18:12.748Z,-7.84
2023-02-13T04:21:20.220Z,-8.32
2023-02-13T04:24:25.067Z,-8.34
2023-02-13T04:27:31.558Z,-8.79
2023-02-13T04:30:36.044Z,-7.90
2023-02-13T04:33:40.089Z,-8.37
2023-02-13T04:36:44.536Z,-8.28
2023-02-13T04:39:51.133Z,-8.50
2023-02-13T04:42:55.436Z,-8.49
2023-02-13T04:45:59.793Z,-8.82
2023-02-13T04:49:04.211Z,-8.76
2023-02-13T04:52:08.627Z,-8.32
2023-02-13T04:55:13.584Z,-8.31
2023-02-13T04:58:17.903Z,-7.94
2023-02-13T05:01:24.034Z,-7.66
2023-02-13T05:04:29.711Z,-7.95
2023-02-13T05:07:33.735Z,-8.03
2023-02-13T05:10:38.527Z,-8.18
2023-02-13T05:13:44.050Z,-7.57
2023-02-13T05:16:48.803Z,-8.34
2023-02-13T05:19:57.562Z,-8.53
2023-02-13T05:23:19.937Z,-8.57
2023-02-13T05:26:24.369Z,-8.41
2023-02-13T05:29:31.725Z,-8.97
2023-02-13T05:32:36.338Z,-8.44
2023-02-13T05:35:40.694Z,-7.99
2023-02-13T05:38:45.410Z,-8.30
2023-02-13T05:41:50.254Z,-8.22
2023-02-13T05:44:54.599Z,-8.10
2023-02-13T05:47:58.916Z,-8.18
2023-02-13T05:51:03.893Z,-7.97
2023-02-13T05:54:08.351Z,-7.73
2023-02-13T05:57:12.920Z,-7.59
2023-02-13T06:00:17.714Z,-7.64
2023-02-13T06:03:21.829Z,-7.70
2023-02-13T06:06:26.297Z,-7.75
2023-02-13T06:09:30.368Z,-7.90
2023-02-13T06:12:34.346Z,-8.27
2023-02-13T06:15:38.647Z,-8.46
2023-02-13T06:18:42.565Z,-8.84
2023-02-13T06:21:46.460Z,-8.58
2023-02-13T06:24:50.318Z,-9.30
2023-02-13T06:27:56.560Z,-9.47
2023-02-13T06:31:01.562Z,-8.68
2023-02-13T06:34:05.934Z,-8.56
2023-02-13T06:37:09.783Z,-8.37
2023-02-13T06:40:15.559Z,-8.25
2023-02-13T06:43:19.795Z,-8.22
2023-02-13T06:46:24.147Z,-8.62
2023-02-13T06:49:29.757Z,-8.39
2023-02-13T06:52:33.413Z,-8.61
2023-02-13T06:55:40.665Z,-8.43
2023-02-13T06:58:49.125Z,-8.10
2023-02-13T07:01:53.631Z,-8.36
2023-02-13T07:04:57.592Z,-8.46
2023-02-13T07:08:01.943Z,-8.66
2023-02-13T07:11:06.086Z,-8.99
2023-02-13T07:14:11.165Z,-8.77
2023-02-13T07:17:15.612Z,-8.95
2023-02-13T07:20:19.826Z,-9.26
2023-02-13T07:23:23.684Z,-9.44
2023-02-13T07:26:28.990Z,-9.56
2023-02-13T07:29:33.497Z,-9.79
2023-02-13T07:32:37.976Z,-9.77
2023-02-13T07:35:51.438Z,-9.94
2023-02-13T07:38:55.947Z,-10.12
2023-02-13T07:42:00.323Z,-10.09
2023-02-13T07:45:07.078Z,-10.13
2023-02-13T07:48:11.415Z,-10.77
2023-02-13T07:51:16.811Z,-10.50
2023-02-13T07:54:20.877Z,-10.66
2023-02-13T07:57:25.070Z,-10.72
2023-02-13T08:00:30.045Z,-10.73
2023-02-13T08:03:34.102Z,-10.60
2023-02-13T08:06:41.290Z,-10.89
2023-02-13T08:10:05.407Z,-10.57
2023-02-13T08:13:11.241Z,-10.86
2023-02-13T08:16:15.858Z,-10.95
2023-02-13T08:19:20.679Z,-10.98
2023-02-13T08:22:25.145Z,-11.05
2023-02-13T08:25:29.416Z,-11.21
2023-02-13T08:28:33.854Z,-11.61
2023-02-13T08:32:16.871Z,-11.64
2023-02-13T08:35:21.422Z,-12.30
2023-02-13T08:38:26.381Z,-11.86
2023-02-13T08:41:30.850Z,-11.73
2023-02-13T08:44:35.457Z,-11.91
2023-02-13T08:47:40.686Z,-12.22
2023-02-13T08:50:44.861Z,-12.40
2023-02-13T08:53:49.303Z,-12.53
2023-02-13T08:56:53.665Z,-12.56
2023-02-13T08:59:58.465Z,-12.22
2023-02-13T09:03:09.414Z,-12.58
2023-02-13T09:06:14.658Z,-12.78
2023-02-13T09:09:19.453Z,-12.71
2023-02-13T09:12:24.979Z,-12.58
2023-02-13T09:15:32.497Z,-12.53
2023-02-13T09:18:36.512Z,-12.79
2023-02-13T09:21:43.638Z,-12.87
2023-02-13T09:24:48.200Z,-13.41
2023-02-13T09:27:52.572Z,-13.56
2023-02-13T09:30:57.116Z,-13.72
2023-02-13T09:34:01.748Z,-13.44
2023-02-13T09:37:05.741Z,-13.23
2023-02-13T09:40:53.391Z,-13.87
2023-02-13T09:44:44.892Z,-14.43
2023-02-13T09:51:21.623Z,-14.56
2023-02-13T09:54:27.933Z,-14.65
2023-02-13T09:57:57.032Z,-14.38
2023-02-13T10:01:04.386Z,-14.11
2023-02-13T10:04:35.179Z,-14.25
2023-02-13T10:07:55.191Z,-14.43
2023-02-13T10:11:13.380Z,-14.58
2023-02-13T10:14:32.686Z,-14.86
2023-02-13T10:17:43.351Z,-14.88
2023-02-13T10:20:54.415Z,-14.55
2023-02-13T10:24:27.358Z,-14.51
2023-02-13T10:28:00.368Z,-14.75
2023-02-13T10:31:11.092Z,-14.81
2023-02-13T10:34:22.472Z,-15.07
2023-02-13T10:37:29.556Z,-15.01
2023-02-13T10:40:41.717Z,-15.33
2023-02-13T10:44:11.769Z,-15.20
2023-02-13T10:47:25.007Z,-15.11
2023-02-13T10:50:52.753Z,-14.95
2023-02-13T10:54:06.026Z,-15.19
2023-02-13T10:57:23.706Z,-15.32
2023-02-13T11:01:00.030Z,-15.61
2023-02-13T11:04:15.904Z,-15.64
2023-02-13T11:07:23.086Z,-15.37
2023-02-13T11:10:29.206Z,-15.49
2023-02-13T11:13:35.493Z,-15.53
2023-02-13T11:16:52.600Z,-15.20
2023-02-13T11:20:01.892Z,-15.71
2023-02-13T11:23:33.718Z,-15.43
2023-02-13T11:26:41.880Z,-15.48
2023-02-13T11:30:03.768Z,-15.66
2023-02-13T11:33:24.258Z,-15.19
2023-02-13T11:36:34.359Z,-14.53
2023-02-13T11:39:39.428Z,-14.96
2023-02-13T11:42:45.132Z,-14.70
2023-02-13T11:46:01.543Z,-14.79
2023-02-13T11:49:07.246Z,-14.62
2023-02-13T11:52:48.617Z,-16.72
2023-02-13T11:56:05.873Z,-14.76
2023-02-13T11:59:15.625Z,-14.84
2023-02-13T12:02:48.373Z,-14.89
2023-02-13T12:06:09.828Z,-14.83
2023-02-13T12:09:17.599Z,-14.80
2023-02-13T12:12:34.212Z,-14.93
2023-02-13T12:15:43.306Z,-15.30
2023-02-13T12:18:57.853Z,-14.96
2023-02-13T12:22:11.852Z,-14.84
2023-02-13T12:25:26.195Z,-15.02
2023-02-13T12:28:59.637Z,-15.33
2023-02-13T12:32:16.023Z,-15.13
2023-02-13T12:35:47.087Z,-15.26
2023-02-13T12:39:15.627Z,-15.19
2023-02-13T12:42:49.958Z,-15.50
2023-02-13T12:46:05.353Z,-15.45
2023-02-13T12:49:33.293Z,-15.53
2023-02-13T12:52:56.860Z,-15.86
2023-02-13T12:56:29.100Z,-15.91
2023-02-13T13:00:05.324Z,-15.86
2023-02-13T13:03:26.270Z,-15.58
2023-02-13T13:06:57.977Z,-15.19
2023-02-13T13:10:22.096Z,-14.71
2023-02-13T13:13:32.802Z,-14.96
2023-02-13T13:16:45.591Z,-14.86
2023-02-13T13:20:10.267Z,-14.95
2023-02-13T13:23:23.512Z,-14.75
2023-02-13T13:26:45.899Z,-14.53
2023-02-13T13:30:02.660Z,-14.60
2023-02-13T13:33:27.337Z,-15.08
2023-02-13T13:36:52.483Z,-14.91
2023-02-13T13:40:05.052Z,-14.93
2023-02-13T13:43:32.947Z,-14.59
2023-02-13T13:46:56.499Z,-14.75
2023-02-13T13:50:06.831Z,-14.45
2023-02-13T13:53:16.946Z,-14.43
2023-02-13T13:56:23.467Z,-14.46
2023-02-13T13:59:40.655Z,-14.08
2023-02-13T14:03:12.004Z,-14.30
2023-02-13T14:06:20.598Z,-14.61
2023-02-13T14:09:28.060Z,-14.78
2023-02-13T14:12:32.126Z,-14.51
2023-02-13T14:15:38.875Z,-14.77
2023-02-13T14:18:48.940Z,-15.09
2023-02-13T14:21:56.177Z,-14.74
2023-02-13T14:25:02.826Z,-14.51
2023-02-13T14:28:08.322Z,-14.81
2023-02-13T14:31:32.938Z,-14.65
2023-02-13T14:34:40.952Z,-14.58
2023-02-13T14:38:00.792Z,-15.04
2023-02-13T14:41:08.082Z,-15.43
2023-02-13T14:44:37.153Z,-14.76
2023-02-13T14:47:46.330Z,-14.97
2023-02-13T14:50:57.665Z,-15.11
2023-02-13T14:54:20.169Z,-14.88
2023-02-13T14:57:37.760Z,-15.18
2023-02-13T15:00:53.819Z,-15.04
2023-02-13T15:04:16.919Z,-15.06
2023-02-13T15:07:31.786Z,-14.93
2023-02-13T15:10:47.882Z,-14.93
2023-02-13T15:13:54.864Z,-14.92
2023-02-13T15:17:08.184Z,-15.00
2023-02-13T15:20:26.036Z,-14.89
2023-02-13T15:23:33.002Z,-15.10
2023-02-13T15:26:37.222Z,-15.28
2023-02-13T15:29:56.173Z,-15.24
2023-02-13T15:33:02.251Z,-15.23
2023-02-13T15:36:08.087Z,-15.20
2023-02-13T15:39:24.511Z,-15.51
2023-02-13T15:42:28.924Z,-15.39
2023-02-13T15:45:33.993Z,-15.36
2023-02-13T15:48:38.513Z,-14.84
2023-02-13T15:51:43.048Z,-15.04
2023-02-13T15:54:54.930Z,-14.49
2023-02-13T15:58:02.411Z,-14.29
2023-02-13T16:01:09.124Z,-13.97
2023-02-13T16:04:46.788Z,-15.86
2023-02-13T16:07:53.580Z,-14.08
2023-02-13T16:11:29.604Z,-13.73
2023-02-13T16:14:38.656Z,-14.58
2023-02-13T16:17:46.712Z,-14.52
2023-02-13T16:20:56.706Z,-14.38
2023-02-13T16:24:07.803Z,-14.59
2023-02-13T16:27:17.033Z,-14.82
2023-02-13T16:30:25.947Z,-14.49
2023-02-13T16:33:31.209Z,-14.66
2023-02-13T16:36:36.021Z,-14.62
2023-02-13T16:39:40.636Z,-15.02
2023-02-13T16:42:45.264Z,-14.91
2023-02-13T16:45:49.773Z,-14.42
2023-02-13T16:49:02.372Z,-14.32
2023-02-13T16:52:17.531Z,-14.64
2023-02-13T16:55:22.895Z,-14.28
2023-02-13T16:58:28.220Z,-14.39
2023-02-13T17:01:32.129Z,-15.01
2023-02-13T17:04:37.487Z,-14.40
2023-02-13T17:11:50.724Z,-15.27
2023-02-13T17:14:55.157Z,-15.63
2023-02-13T17:18:00.714Z,-15.69
2023-02-13T17:21:04.890Z,-16.15
2023-02-13T17:24:13.181Z,-16.02
2023-02-13T17:27:17.591Z,-15.99
2023-02-13T17:30:27.242Z,-15.81
2023-02-13T17:33:35.112Z,-16.14
2023-02-13T17:36:39.260Z,-15.90
2023-02-13T17:39:43.883Z,-15.89
2023-02-13T17:42:53.656Z,-15.95
2023-02-13T17:45:59.974Z,-16.13
2023-02-13T17:49:05.372Z,-16.42
2023-02-13T17:52:11.885Z,-16.28
2023-02-13T17:55:25.579Z,-16.12
2023-02-13T17:58:29.865Z,-16.02
2023-02-13T18:01:34.504Z,-16.49
2023-02-13T18:04:38.862Z,-16.36
2023-02-13T18:07:44.079Z,-16.04
2023-02-13T18:10:48.576Z,-16.55
2023-02-13T18:13:56.380Z,-16.42
2023-02-13T18:17:01.371Z,-16.78
2023-02-13T18:20:10.564Z,-16.60
2023-02-13T18:23:15.030Z,-16.97
2023-02-13T18:26:19.332Z,-16.93
2023-02-13T18:29:23.689Z,-16.98
2023-02-13T18:32:27.864Z,-16.68
2023-02-13T18:35:34.186Z,-16.69
2023-02-13T18:38:38.061Z,-16.47
2023-02-13T18:41:42.786Z,-16.52
2023-02-13T18:44:46.875Z,-16.87
2023-02-13T18:47:51.008Z,-17.11
2023-02-13T18:50:55.554Z,-17.24
2023-02-13T18:54:00.701Z,-17.24
2023-02-13T18:57:04.904Z,-17.26
2023-02-13T19:00:10.151Z,-17.38
2023-02-13T19:03:14.096Z,-17.40
2023-02-13T19:06:22.037Z,-17.26
2023-02-13T19:09:26.576Z,-17.36
2023-02-13T19:12:31.072Z,-17.59
2023-02-13T19:15:44.670Z,-17.68
2023-02-13T19:18:58.719Z,-17.79
2023-02-13T19:22:04.733Z,-17.41
2023-02-13T19:25:09.324Z,-17.26
2023-02-13T19:28:13.450Z,-17.05
2023-02-13T19:31:25.707Z,-17.55
2023-02-13T19:34:33.179Z,-17.55
2023-02-13T19:37:46.225Z,-17.48
2023-02-13T19:40:56.255Z,-17.05
2023-02-13T19:44:01.871Z,-17.37
2023-02-13T19:47:06.352Z,-17.50
2023-02-13T19:50:13.416Z,-17.66
2023-02-13T19:53:17.924Z,-17.59
2023-02-13T19:56:22.459Z,-17.57
2023-02-13T19:59:30.132Z,-17.19
2023-02-13T20:02:45.839Z,-17.18
2023-02-13T20:05:50.229Z,-17.07
2023-02-13T20:09:10.125Z,-16.93
2023-02-13T20:12:17.940Z,-17.04
2023-02-13T20:15:25.978Z,-16.98
2023-02-13T20:18:30.275Z,-16.60
2023-02-13T20:21:35.328Z,-16.69
2023-02-13T20:24:39.867Z,-17.03
2023-02-13T20:27:44.279Z,-17.02
2023-02-13T20:30:48.593Z,-16.92
2023-02-13T20:33:53.781Z,-17.27
2023-02-13T20:37:01.013Z,-17.41
2023-02-13T20:40:06.305Z,-17.42
2023-02-13T20:43:10.356Z,-17.29
2023-02-13T20:46:19.203Z,-17.24
2023-02-13T20:49:23.089Z,-17.29
2023-02-13T20:52:27.466Z,-16.90
2023-02-13T20:55:32.967Z,-16.42
2023-02-13T20:58:37.707Z,-16.41
2023-02-13T21:01:42.340Z,-16.21
2023-02-13T21:04:46.920Z,-16.67
2023-02-13T21:07:51.317Z,-16.96
2023-02-13T21:10:55.552Z,-16.97
2023-02-13T21:14:00.236Z,-16.51
2023-02-13T21:17:04.715Z,-16.77
2023-02-13T21:25:27.630Z,-17.00
2023-02-13T21:28:31.752Z,-16.95
2023-02-13T21:31:39.036Z,-17.22
2023-02-13T21:34:44.160Z,-17.15
2023-02-13T21:37:48.439Z,-16.91
2023-02-13T21:40:52.805Z,-17.00
2023-02-13T21:43:57.124Z,-17.08
2023-02-13T21:47:01.751Z,-17.21
2023-02-13T21:50:09.408Z,-17.40
2023-02-13T21:53:13.741Z,-17.08
2023-02-13T21:56:20.690Z,-16.76
2023-02-13T21:59:25.117Z,-16.84
2023-02-13T22:02:30.214Z,-17.12
2023-02-13T22:05:34.584Z,-17.21
2023-02-13T22:08:39.056Z,-16.70
2023-02-13T22:11:44.277Z,-16.93
2023-02-13T22:14:48.648Z,-17.02
2023-02-13T22:17:57.063Z,-17.03
2023-02-13T22:21:14.262Z,-17.07
2023-02-13T22:24:56.305Z,-18.43
2023-02-13T22:28:53.899Z,-18.16
2023-02-13T22:32:13.067Z,-17.61
2023-02-13T22:35:21.750Z,-16.65
2023-02-13T22:38:28.383Z,-16.47
2023-02-13T22:41:43.153Z,-16.75
2023-02-13T22:44:47.509Z,-16.79
2023-02-13T22:47:54.432Z,-16.64
2023-02-13T22:51:08.123Z,-16.35
2023-02-13T22:54:12.585Z,-15.66
2023-02-13T22:57:18.271Z,-15.78
2023-02-13T23:00:24.403Z,-15.66
2023-02-13T23:03:29.348Z,-15.30
2023-02-13T23:06:33.756Z,-15.32
2023-02-13T23:09:46.068Z,-15.27
2023-02-13T23:12:54.968Z,-15.02
2023-02-13T23:15:59.305Z,-15.18
2023-02-13T23:19:03.621Z,-15.00
2023-02-13T23:22:29.831Z,-15.86
2023-02-13T23:25:34.116Z,-15.54
2023-02-13T23:28:38.478Z,-15.27
2023-02-13T23:31:43.314Z,-15.40
2023-02-13T23:34:47.724Z,-15.15
2023-02-13T23:37:52.168Z,-14.80
2023-02-13T23:40:56.812Z,-14.58
2023-02-13T23:44:01.293Z,-14.21
2023-02-13T23:47:05.932Z,-14.22
2023-02-13T23:50:13.213Z,-14.23
2023-02-13T23:53:17.562Z,-13.75
2023-02-13T23:56:26.112Z,-13.85
2023-02-13T23:59:30.623Z,-13.15
